createdAt,value
2022-11-28T00:01:43.295Z,1.27
2022-11-28T00:04:14.311Z,1.80
2022-11-28T00:06:47.045Z,1.42
2022-11-28T00:09:18.137Z,1.35
2022-11-28T00:11:47.647Z,1.30
2022-11-28T00:14:18.369Z,1.40
2022-11-28T00:16:46.539Z,1.38
2022-11-28T00:19:14.378Z,1.08
2022-11-28T00:21:42.019Z,1.67
2022-11-28T00:24:09.816Z,1.20
2022-11-28T00:26:40.405Z,1.20
2022-11-28T00:29:08.869Z,1.17
2022-11-28T00:31:43.168Z,1.55
2022-11-28T00:34:12.605Z,1.50
2022-11-28T00:36:42.669Z,1.17
2022-11-28T00:39:09.994Z,1.40
2022-11-28T00:41:37.303Z,1.20
2022-11-28T00:44:05.008Z,1.27
2022-11-28T00:46:32.291Z,1.40
2022-11-28T00:48:59.855Z,1.00
2022-11-28T00:51:33.871Z,1.00
2022-11-28T00:54:04.180Z,1.20
2022-11-28T00:56:36.849Z,1.40
2022-11-28T00:59:07.275Z,1.23
2022-11-28T01:01:41.361Z,1.33
2022-11-28T01:04:11.419Z,1.30
2022-11-28T01:06:47.479Z,1.10
2022-11-28T01:09:20.479Z,1.58
2022-11-28T01:11:52.410Z,1.27
2022-11-28T01:14:24.994Z,1.27
2022-11-28T01:16:52.589Z,1.07
2022-11-28T01:19:21.230Z,1.30
2022-11-28T01:21:49.099Z,1.13
2022-11-28T01:24:16.562Z,1.20
2022-11-28T01:26:43.748Z,1.40
2022-11-28T01:29:11.759Z,1.33
2022-11-28T01:31:39.866Z,1.50
2022-11-28T01:34:10.262Z,1.48
2022-11-28T01:36:37.502Z,1.30
2022-11-28T01:39:07.265Z,1.55
2022-11-28T01:41:37.055Z,1.58
2022-11-28T01:44:06.631Z,1.33
2022-11-28T01:46:35.277Z,1.42
2022-11-28T01:49:19.763Z,1.17
2022-11-28T01:51:50.544Z,1.40
2022-11-28T01:54:20.530Z,1.58
2022-11-28T01:56:55.124Z,1.50
2022-11-28T01:59:26.586Z,1.73
2022-11-28T02:01:54.280Z,1.83
2022-11-28T02:04:22.582Z,1.65
2022-11-28T02:06:49.743Z,1.77
2022-11-28T02:09:17.247Z,1.40
2022-11-28T02:11:44.395Z,1.52
2022-11-28T02:14:23.289Z,1.90
2022-11-28T02:17:08.615Z,1.70
2022-11-28T02:20:20.072Z,1.88
2022-11-28T02:23:05.284Z,1.60
2022-11-28T02:25:38.579Z,1.80
2022-11-28T02:28:31.528Z,1.85
2022-11-28T02:31:17.557Z,1.73
2022-11-28T02:33:56.946Z,2.00
2022-11-28T02:36:47.256Z,2.10
2022-11-28T02:39:39.935Z,1.77
2022-11-28T02:42:10.671Z,1.88
2022-11-28T02:44:52.185Z,1.88
2022-11-28T02:47:33.990Z,2.17
2022-11-28T02:50:24.769Z,2.15
2022-11-28T02:52:57.648Z,2.03
2022-11-28T02:55:25.894Z,1.80
2022-11-28T02:57:55.409Z,1.98
2022-11-28T03:00:27.987Z,1.52
2022-11-28T03:03:28.766Z,2.07
2022-11-28T03:06:24.459Z,1.95
2022-11-28T03:09:24.946Z,1.73
2022-11-28T03:12:26.084Z,1.98
2022-11-28T03:15:00.435Z,1.90
2022-11-28T03:17:38.703Z,2.13
2022-11-28T03:20:15.111Z,1.70
2022-11-28T03:22:58.433Z,2.10
2022-11-28T03:25:31.699Z,1.98
2022-11-28T03:28:23.494Z,1.88
2022-11-28T03:30:59.027Z,1.50
2022-11-28T03:33:32.146Z,1.80
2022-11-28T03:36:11.626Z,2.08
2022-11-28T03:38:42.831Z,2.00
2022-11-28T03:41:20.777Z,1.98
2022-11-28T03:43:55.151Z,1.98
2022-11-28T03:46:29.215Z,1.55
2022-11-28T03:49:00.402Z,1.73
2022-11-28T03:51:40.003Z,1.80
2022-11-28T03:54:34.532Z,1.80
2022-11-28T03:57:13.924Z,1.65
2022-11-28T03:59:49.082Z,1.48
2022-11-28T04:02:37.236Z,1.52
2022-11-28T04:05:28.027Z,1.58
2022-11-28T04:08:00.064Z,1.75
2022-11-28T04:10:36.783Z,1.73
2022-11-28T04:13:20.041Z,1.85
2022-11-28T04:15:53.005Z,1.88
2022-11-28T04:18:33.502Z,1.67
2022-11-28T04:21:33.017Z,1.75
2022-11-28T04:24:09.057Z,1.67
2022-11-28T04:26:47.425Z,1.90
2022-11-28T04:29:18.795Z,1.50
2022-11-28T04:31:48.942Z,1.95
2022-11-28T04:34:21.390Z,1.63
2022-11-28T04:36:49.943Z,1.95
2022-11-28T04:39:23.319Z,1.70
2022-11-28T04:41:55.516Z,1.83
2022-11-28T04:44:29.434Z,1.58
2022-11-28T04:47:00.773Z,1.67
2022-11-28T04:49:31.843Z,1.77
2022-11-28T04:52:21.362Z,1.83
2022-11-28T04:55:01.576Z,2.03
2022-11-28T04:57:35.158Z,1.70
2022-11-28T05:00:05.500Z,2.00
2022-11-28T05:02:33.943Z,1.88
2022-11-28T05:05:01.929Z,1.52
2022-11-28T05:07:29.209Z,1.58
2022-11-28T05:09:57.656Z,1.70
2022-11-28T05:12:27.113Z,1.77
2022-11-28T05:14:54.743Z,1.50
2022-11-28T05:17:24.543Z,1.65
2022-11-28T05:19:51.832Z,1.88
2022-11-28T05:22:21.571Z,1.80
2022-11-28T05:24:48.802Z,1.80
2022-11-28T05:27:19.183Z,1.67
2022-11-28T05:29:51.868Z,1.70
2022-11-28T05:32:24.624Z,1.95
2022-11-28T05:34:51.869Z,1.77
2022-11-28T05:37:19.067Z,1.63
2022-11-28T05:39:46.275Z,1.85
2022-11-28T05:42:13.477Z,1.30
2022-11-28T05:44:41.226Z,1.80
2022-11-28T05:47:08.441Z,1.77
2022-11-28T05:49:35.694Z,1.80
2022-11-28T05:52:05.580Z,2.00
2022-11-28T05:54:32.988Z,2.33
2022-11-28T05:57:02.869Z,2.08
2022-11-28T05:59:30.071Z,2.05
2022-11-28T06:01:57.392Z,2.22
2022-11-28T06:04:24.689Z,2.80
2022-11-28T06:06:54.479Z,2.60
2022-11-28T06:09:25.614Z,2.53
2022-11-28T06:11:53.630Z,2.92
2022-11-28T06:14:20.854Z,2.70
2022-11-28T06:16:48.193Z,2.25
2022-11-28T06:19:15.717Z,3.05
2022-11-28T06:21:43.569Z,2.97
2022-11-28T06:24:13.439Z,2.75
2022-11-28T06:26:47.826Z,2.63
2022-11-28T06:29:15.616Z,2.80
2022-11-28T06:31:43.433Z,2.67
2022-11-28T06:34:13.128Z,3.13
2022-11-28T06:36:44.251Z,3.47
2022-11-28T06:39:17.952Z,3.63
2022-11-28T06:41:47.370Z,3.40
2022-11-28T06:44:17.299Z,4.25
2022-11-28T06:46:44.520Z,3.58
2022-11-28T06:49:16.278Z,3.55
2022-11-28T06:51:45.747Z,3.63
2022-11-28T06:54:13.119Z,4.00
2022-11-28T06:56:43.171Z,4.22
2022-11-28T06:59:14.337Z,3.95
2022-11-28T07:01:44.155Z,3.67
2022-11-28T07:04:11.838Z,3.67
2022-11-28T07:06:39.477Z,3.65
2022-11-28T07:09:06.763Z,3.97
2022-11-28T07:11:34.502Z,3.75
2022-11-28T07:14:02.620Z,3.72
2022-11-28T07:16:34.826Z,3.90
2022-11-28T07:19:03.006Z,3.63
2022-11-28T07:21:33.226Z,3.80
2022-11-28T07:24:00.811Z,3.80
2022-11-28T07:26:28.146Z,3.55
2022-11-28T07:28:58.266Z,3.70
2022-11-28T07:31:28.739Z,3.80
2022-11-28T07:33:58.812Z,3.90
2022-11-28T07:36:28.228Z,3.92
2022-11-28T07:39:00.919Z,3.95
2022-11-28T07:41:31.680Z,3.53
2022-11-28T07:44:01.695Z,3.85
2022-11-28T07:46:31.096Z,3.55
2022-11-28T07:49:01.043Z,3.05
2022-11-28T07:51:33.965Z,3.13
2022-11-28T07:54:02.258Z,2.97
2022-11-28T07:59:21.352Z,2.75
2022-11-28T08:01:53.740Z,3.08
2022-11-28T08:04:21.389Z,2.65
2022-11-28T08:06:49.232Z,2.50
2022-11-28T08:09:19.383Z,2.63
2022-11-28T08:11:51.276Z,2.25
2022-11-28T08:14:19.038Z,2.50
2022-11-28T08:16:46.823Z,2.40
2022-11-28T08:19:14.504Z,2.47
2022-11-28T08:21:46.338Z,2.58
2022-11-28T08:24:16.019Z,2.38
2022-11-28T08:26:43.198Z,3.17
2022-11-28T08:29:13.072Z,2.80
2022-11-28T08:31:40.652Z,2.50
2022-11-28T08:34:10.649Z,2.47
2022-11-28T08:36:38.011Z,4.72
2022-11-28T08:39:25.084Z,3.15
2022-11-28T08:41:57.068Z,3.00
2022-11-28T08:44:24.440Z,4.70
2022-11-28T08:46:59.303Z,2.88
2022-11-28T08:49:26.515Z,2.83
2022-11-28T08:51:53.928Z,3.03
2022-11-28T08:54:21.107Z,3.05
2022-11-28T08:56:50.852Z,3.58
2022-11-28T08:59:18.657Z,3.28
2022-11-28T09:01:48.311Z,4.15
2022-11-28T09:04:16.207Z,3.78
2022-11-28T09:06:43.927Z,4.25
2022-11-28T09:09:11.481Z,4.47
2022-11-28T09:11:44.583Z,4.72
2022-11-28T09:14:12.251Z,5.60
2022-11-28T09:16:40.863Z,6.00
2022-11-28T09:19:10.820Z,4.22
2022-11-28T09:21:38.658Z,4.68
2022-11-28T09:24:09.456Z,4.35
2022-11-28T09:26:37.099Z,4.68
2022-11-28T09:29:04.328Z,4.70
2022-11-28T09:31:31.678Z,7.43
2022-11-28T09:33:58.969Z,5.35
2022-11-28T09:36:28.188Z,4.25
2022-11-28T09:38:58.329Z,3.90
2022-11-28T09:41:31.370Z,4.10
2022-11-28T09:44:20.102Z,3.63
2022-11-28T09:46:53.112Z,3.53
2022-11-28T09:49:41.492Z,3.92
2022-11-28T09:52:29.816Z,3.80
2022-11-28T09:55:27.081Z,4.30
2022-11-28T09:57:54.616Z,4.20
2022-11-28T10:00:34.523Z,4.15
2022-11-28T10:03:17.336Z,4.75
2022-11-28T10:05:59.450Z,4.85
2022-11-28T10:08:58.152Z,4.40
2022-11-28T10:11:42.094Z,8.75
2022-11-28T10:14:18.775Z,4.50
2022-11-28T10:16:51.901Z,4.30
2022-11-28T10:19:53.357Z,4.32
2022-11-28T10:22:25.450Z,4.07
2022-11-28T10:24:57.441Z,4.55
2022-11-28T10:27:33.912Z,4.18
2022-11-28T10:30:15.717Z,3.97
2022-11-28T10:32:49.140Z,4.30
2022-11-28T10:35:47.472Z,4.13
2022-11-28T10:38:16.314Z,4.22
2022-11-28T10:41:20.640Z,4.53
2022-11-28T10:46:57.892Z,4.50
2022-11-28T10:49:56.434Z,4.88
2022-11-28T10:52:35.676Z,4.45
2022-11-28T10:55:30.339Z,4.63
2022-11-28T10:58:10.038Z,3.72
2022-11-28T11:00:40.728Z,4.22
2022-11-28T11:03:13.993Z,4.15
2022-11-28T11:05:41.883Z,4.43
2022-11-28T11:08:22.629Z,4.38
2022-11-28T11:10:56.128Z,3.95
2022-11-28T11:13:26.546Z,4.47
2022-11-28T11:16:03.678Z,3.97
2022-11-28T11:18:50.314Z,3.42
2022-11-28T11:21:31.032Z,4.80
2022-11-28T11:24:18.372Z,4.00
2022-11-28T11:26:48.796Z,4.13
2022-11-28T11:29:29.268Z,4.30
2022-11-28T11:32:03.676Z,3.78
2022-11-28T11:34:37.787Z,4.20
2022-11-28T11:37:33.381Z,3.70
2022-11-28T11:40:02.610Z,4.07
2022-11-28T11:42:33.941Z,4.38
2022-11-28T11:45:24.192Z,3.53
2022-11-28T11:47:51.473Z,3.80
2022-11-28T11:50:21.338Z,4.40
2022-11-28T11:53:14.034Z,3.67
2022-11-28T11:55:55.796Z,4.55
2022-11-28T11:58:27.884Z,3.95
2022-11-28T12:01:00.122Z,3.78
2022-11-28T12:03:55.531Z,3.45
2022-11-28T12:06:32.704Z,4.18
2022-11-28T12:09:26.909Z,4.07
2022-11-28T12:12:13.858Z,3.78
2022-11-28T12:14:46.562Z,4.18
2022-11-28T12:17:58.347Z,4.43
2022-11-28T12:20:42.949Z,4.35
2022-11-28T12:23:41.819Z,3.65
2022-11-28T12:26:34.233Z,4.22
2022-11-28T12:29:28.529Z,4.15
2022-11-28T12:32:13.237Z,3.97
2022-11-28T12:35:02.880Z,4.88
2022-11-28T12:38:09.694Z,4.15
2022-11-28T12:40:52.581Z,3.63
2022-11-28T12:43:25.029Z,4.65
2022-11-28T12:46:24.712Z,4.28
2022-11-28T12:48:58.906Z,4.18
2022-11-28T12:51:44.264Z,4.00
2022-11-28T12:54:29.598Z,4.03
2022-11-28T12:57:12.933Z,3.60
2022-11-28T13:00:09.220Z,4.20
2022-11-28T13:03:08.273Z,5.35
2022-11-28T13:06:07.526Z,4.18
2022-11-28T13:08:48.684Z,3.83
2022-11-28T13:11:25.072Z,4.07
2022-11-28T13:14:03.219Z,3.85
2022-11-28T13:16:36.267Z,4.10
2022-11-28T13:19:21.274Z,4.57
2022-11-28T13:22:14.974Z,4.28
2022-11-28T13:25:09.836Z,3.85
2022-11-28T13:27:52.886Z,4.43
2022-11-28T13:30:25.882Z,4.72
2022-11-28T13:33:35.359Z,4.50
2022-11-28T13:36:10.688Z,3.92
2022-11-28T13:39:12.460Z,4.25
2022-11-28T13:45:01.151Z,4.43
2022-11-28T13:47:32.674Z,4.03
2022-11-28T13:50:34.913Z,4.40
2022-11-28T13:53:12.602Z,4.53
2022-11-28T13:55:41.709Z,4.45
2022-11-28T13:58:28.634Z,4.13
2022-11-28T14:01:10.664Z,4.18
2022-11-28T14:04:03.354Z,4.50
2022-11-28T14:06:49.418Z,4.30
2022-11-28T14:09:36.665Z,4.05
2022-11-28T14:12:42.710Z,4.10
2022-11-28T14:15:24.185Z,4.30
2022-11-28T14:18:31.641Z,4.18
2022-11-28T14:21:07.502Z,4.35
2022-11-28T14:24:06.590Z,4.32
2022-11-28T14:26:37.618Z,3.90
2022-11-28T14:29:18.605Z,4.15
2022-11-28T14:32:13.721Z,4.00
2022-11-28T14:34:49.015Z,4.20
2022-11-28T14:37:35.684Z,4.47
2022-11-28T14:40:03.794Z,3.97
2022-11-28T14:45:45.215Z,4.30
2022-11-28T14:48:31.526Z,4.15
2022-11-28T14:51:02.460Z,3.13
2022-11-28T14:53:44.784Z,3.83
2022-11-28T14:56:15.043Z,3.97
2022-11-28T14:58:49.721Z,3.65
2022-11-28T15:01:38.507Z,3.80
2022-11-28T15:04:37.581Z,4.05
2022-11-28T15:07:23.868Z,3.72
2022-11-28T15:10:22.731Z,3.78
2022-11-28T15:13:15.459Z,3.70
2022-11-28T15:15:51.288Z,4.10
2022-11-28T15:18:21.248Z,3.85
2022-11-28T15:20:58.646Z,3.60
2022-11-28T15:23:38.361Z,3.63
2022-11-28T15:26:30.560Z,3.45
2022-11-28T15:29:22.728Z,4.22
2022-11-28T15:31:53.160Z,3.97
2022-11-28T15:34:34.013Z,3.70
2022-11-28T15:37:06.073Z,3.88
2022-11-28T15:39:39.922Z,4.00
2022-11-28T15:42:28.790Z,3.47
2022-11-28T15:45:17.102Z,3.40
2022-11-28T15:47:49.250Z,3.92
2022-11-28T15:50:20.882Z,3.78
2022-11-28T15:53:02.956Z,3.80
2022-11-28T15:55:38.691Z,4.10
2022-11-28T15:58:23.450Z,3.65
2022-11-28T16:01:05.464Z,3.53
2022-11-28T16:03:37.746Z,4.03
2022-11-28T16:06:06.146Z,4.90
2022-11-28T16:08:47.727Z,4.70
2022-11-28T16:11:19.768Z,4.57
2022-11-28T16:13:50.055Z,4.13
2022-11-28T16:16:22.549Z,4.00
2022-11-28T16:18:58.451Z,4.00
2022-11-28T16:21:33.714Z,4.07
2022-11-28T16:24:01.847Z,4.00
2022-11-28T16:26:37.527Z,4.82
2022-11-28T16:29:10.439Z,4.90
2022-11-28T16:31:38.302Z,5.18
2022-11-28T16:34:06.256Z,4.75
2022-11-28T16:36:38.878Z,4.70
2022-11-28T16:39:14.336Z,5.00
2022-11-28T16:42:16.739Z,4.63
2022-11-28T16:44:44.725Z,5.18
2022-11-28T16:47:33.158Z,4.75
2022-11-28T16:50:15.354Z,5.18
2022-11-28T16:53:29.614Z,4.10
2022-11-28T16:55:59.272Z,4.80
2022-11-28T16:58:29.030Z,5.38
2022-11-28T17:01:02.646Z,6.15
2022-11-28T17:03:46.990Z,5.05
2022-11-28T17:06:22.848Z,5.07
2022-11-28T17:08:50.491Z,5.72
2022-11-28T17:11:21.239Z,5.07
2022-11-28T17:13:57.244Z,5.50
2022-11-28T17:16:28.174Z,5.93
2022-11-28T17:18:56.126Z,7.13
2022-11-28T17:21:34.723Z,8.60
2022-11-28T17:24:02.518Z,9.10
2022-11-28T17:26:30.443Z,7.70
2022-11-28T17:28:59.040Z,7.68
2022-11-28T17:31:26.433Z,6.43
2022-11-28T17:33:53.721Z,7.00
2022-11-28T17:36:21.359Z,7.63
2022-11-28T17:38:48.577Z,7.55
2022-11-28T17:41:16.231Z,9.55
2022-11-28T17:43:43.501Z,12.45
2022-11-28T17:46:13.234Z,11.20
2022-11-28T17:48:42.600Z,7.57
2022-11-28T17:51:10.603Z,6.60
2022-11-28T17:53:40.346Z,5.45
2022-11-28T17:56:13.113Z,6.05
2022-11-28T17:58:40.398Z,5.97
2022-11-28T18:01:12.703Z,5.20
2022-11-28T18:03:40.296Z,5.55
2022-11-28T18:06:13.836Z,5.32
2022-11-28T18:11:13.060Z,9.13
2022-11-28T18:13:44.383Z,10.77
2022-11-28T18:16:17.960Z,6.93
2022-11-28T18:18:45.663Z,6.10
2022-11-28T18:21:13.703Z,5.75
2022-11-28T18:23:45.948Z,4.72
2022-11-28T18:26:19.353Z,4.80
2022-11-28T18:28:47.292Z,4.63
2022-11-28T18:31:19.528Z,5.97
2022-11-28T18:33:47.103Z,5.88
2022-11-28T18:36:20.330Z,5.70
2022-11-28T18:38:47.560Z,13.20
2022-11-28T18:41:21.160Z,19.48
2022-11-28T18:43:48.385Z,11.18
2022-11-28T18:46:38.613Z,8.50
2022-11-28T18:49:05.951Z,7.50
2022-11-28T18:51:36.925Z,7.43
2022-11-28T18:54:07.673Z,8.73
2022-11-28T18:56:37.557Z,8.70
2022-11-28T18:59:04.783Z,7.35
2022-11-28T19:01:36.823Z,7.95
2022-11-28T19:04:07.306Z,8.73
2022-11-28T19:06:38.725Z,7.63
2022-11-28T19:09:12.767Z,7.47
2022-11-28T19:11:43.608Z,7.25
2022-11-28T19:14:16.151Z,7.07
2022-11-28T19:16:45.113Z,7.05
2022-11-28T19:19:12.358Z,7.22
2022-11-28T19:21:42.227Z,6.70
2022-11-28T19:24:12.448Z,6.60
2022-11-28T19:26:41.916Z,6.82
2022-11-28T19:29:09.470Z,7.25
2022-11-28T19:31:38.733Z,7.00
2022-11-28T19:34:14.521Z,6.97
2022-11-28T19:36:47.374Z,6.47
2022-11-28T19:39:22.036Z,7.10
2022-11-28T19:41:53.740Z,6.88
2022-11-28T19:44:29.028Z,7.07
2022-11-28T19:46:59.006Z,7.72
2022-11-28T19:49:26.812Z,7.63
2022-11-28T19:51:54.550Z,7.57
2022-11-28T19:54:21.943Z,7.60
2022-11-28T19:56:51.982Z,8.15
2022-11-28T19:59:19.787Z,7.53
2022-11-28T20:01:50.070Z,6.97
2022-11-28T20:04:17.898Z,7.07
2022-11-28T20:06:47.296Z,7.25
2022-11-28T20:09:15.091Z,6.38
2022-11-28T20:11:43.694Z,7.60
2022-11-28T20:14:18.754Z,7.72
2022-11-28T20:16:47.168Z,6.78
2022-11-28T20:19:14.972Z,7.25
2022-11-28T20:21:42.998Z,8.57
2022-11-28T20:24:11.064Z,6.80
2022-11-28T20:26:41.680Z,7.35
2022-11-28T20:29:11.871Z,6.00
2022-11-28T20:31:45.212Z,6.10
2022-11-28T20:36:41.333Z,7.10
2022-11-28T20:39:09.604Z,6.65
2022-11-28T20:41:39.829Z,6.25
2022-11-28T20:44:07.585Z,6.57
2022-11-28T20:46:35.634Z,6.45
2022-11-28T20:49:10.252Z,6.63
2022-11-28T20:51:37.539Z,6.28
2022-11-28T20:54:08.293Z,10.55
2022-11-28T20:57:12.868Z,6.95
2022-11-28T20:59:33.066Z,6.60
2022-11-28T21:02:00.398Z,6.97
2022-11-28T21:04:28.628Z,7.50
2022-11-28T21:07:03.590Z,12.45
2022-11-28T21:09:31.320Z,6.88
2022-11-28T21:12:00.698Z,8.43
2022-11-28T21:14:29.477Z,8.35
2022-11-28T21:16:57.934Z,7.45
2022-11-28T21:19:25.427Z,7.80
2022-11-28T21:21:53.227Z,7.70
2022-11-28T21:24:23.014Z,6.05
2022-11-28T21:26:54.473Z,7.10
2022-11-28T21:29:24.222Z,7.05
2022-11-28T21:31:51.704Z,7.00
2022-11-28T21:34:19.555Z,7.80
2022-11-28T21:36:47.656Z,10.65
2022-11-28T21:39:18.556Z,10.15
2022-11-28T21:41:48.919Z,11.30
2022-11-28T21:44:16.455Z,11.70
2022-11-28T21:46:46.694Z,11.25
2022-11-28T21:49:17.103Z,11.77
2022-11-28T21:51:49.489Z,10.13
2022-11-28T21:54:16.677Z,11.02
2022-11-28T21:56:43.875Z,9.45
2022-11-28T21:59:11.620Z,10.55
2022-11-28T22:01:39.908Z,10.35
2022-11-28T22:04:10.408Z,9.93
2022-11-28T22:06:38.116Z,9.18
2022-11-28T22:09:09.441Z,9.90
2022-11-28T22:11:38.748Z,8.57
2022-11-28T22:14:08.967Z,8.35
2022-11-28T22:16:36.708Z,8.20
2022-11-28T22:19:04.142Z,9.13
2022-11-28T22:24:22.147Z,8.82
2022-11-28T22:26:52.548Z,10.93
2022-11-28T22:29:20.243Z,7.88
2022-11-28T22:31:48.013Z,7.80
2022-11-28T22:34:19.897Z,7.30
2022-11-28T22:36:47.174Z,7.32
2022-11-28T22:39:16.856Z,7.68
2022-11-28T22:41:46.281Z,8.13
2022-11-28T22:44:13.944Z,7.18
2022-11-28T22:46:44.291Z,8.18
2022-11-28T22:49:11.762Z,8.48
2022-11-28T22:51:40.038Z,8.35
2022-11-28T22:54:07.567Z,7.95
2022-11-28T22:56:34.900Z,8.40
2022-11-28T22:59:10.636Z,8.57
2022-11-28T23:01:37.830Z,8.68
2022-11-28T23:04:05.369Z,8.10
2022-11-28T23:06:35.161Z,8.65
2022-11-28T23:09:09.554Z,9.07
2022-11-28T23:11:38.250Z,9.25
2022-11-28T23:14:06.414Z,10.05
2022-11-28T23:16:38.784Z,8.52
2022-11-28T23:19:12.349Z,9.60
2022-11-28T23:24:11.906Z,9.65
2022-11-28T23:26:39.268Z,8.88
2022-11-28T23:29:08.977Z,8.80
2022-11-28T23:31:42.042Z,7.72
2022-11-28T23:34:10.353Z,7.75
2022-11-28T23:36:47.456Z,8.48
2022-11-28T23:39:20.401Z,8.75
2022-11-28T23:41:50.348Z,9.23
2022-11-28T23:44:20.805Z,9.85
2022-11-28T23:46:48.390Z,9.75
2022-11-28T23:49:18.053Z,9.73
2022-11-28T23:51:45.699Z,8.95
2022-11-28T23:54:15.959Z,9.05
2022-11-28T23:56:46.749Z,8.45
2022-11-28T23:59:14.018Z,8.18
